createdAt,value
2023-05-08T00:01:27.075Z,97941.78
2023-05-08T00:03:56.161Z,97959.38
2023-05-08T00:06:24.532Z,97964.41
2023-05-08T00:08:53.133Z,97923.47
2023-05-08T00:11:23.544Z,97956.38
2023-05-08T00:13:53.339Z,97943.78
2023-05-08T00:16:21.827Z,97978.94
2023-05-08T00:18:50.697Z,97989.88
2023-05-08T00:21:19.226Z,97954.78
2023-05-08T00:23:47.744Z,97958.56
2023-05-08T00:26:16.700Z,97957.97
2023-05-08T00:28:46.427Z,97968.34
2023-05-08T00:31:15.467Z,97974.56
2023-05-08T00:33:43.774Z,97980.97
2023-05-08T00:36:12.593Z,97937.38
2023-05-08T00:38:41.274Z,97983.22
2023-05-08T00:41:09.752Z,97959.81
2023-05-08T00:43:40.198Z,97985.56
2023-05-08T00:46:12.089Z,97983.13
2023-05-08T00:48:41.920Z,97953.53
2023-05-08T00:51:11.539Z,97966.94
2023-05-08T00:53:45.832Z,97966.63
2023-05-08T00:56:16.044Z,97956.47
2023-05-08T00:58:46.381Z,97993.50
2023-05-08T01:01:17.024Z,97963.97
2023-05-08T01:03:46.588Z,97945.06
2023-05-08T01:06:15.001Z,97981.81
2023-05-08T01:08:45.473Z,97982.44
2023-05-08T01:11:20.080Z,97954.97
2023-05-08T01:13:59.463Z,98000.94
2023-05-08T01:16:40.448Z,97990.50
2023-05-08T01:19:33.811Z,97988.47
2023-05-08T01:22:13.597Z,97988.72
2023-05-08T01:25:06.867Z,98019.22
2023-05-08T01:28:09.956Z,98001.97
2023-05-08T01:31:04.153Z,97980.88
2023-05-08T01:33:37.392Z,97996.81
2023-05-08T01:36:18.757Z,97964.53
2023-05-08T01:38:55.785Z,98013.66
2023-05-08T01:41:29.120Z,98013.19
2023-05-08T01:44:11.875Z,97973.31
2023-05-08T01:46:40.471Z,97980.53
2023-05-08T01:49:18.844Z,98002.31
2023-05-08T01:51:58.344Z,98015.00
2023-05-08T01:54:30.940Z,98022.59
2023-05-08T01:57:03.427Z,98005.97
2023-05-08T01:59:35.733Z,98041.16
2023-05-08T02:02:05.140Z,97992.94
2023-05-08T02:04:38.520Z,98019.53
2023-05-08T02:07:08.211Z,98020.47
2023-05-08T02:09:36.982Z,97989.72
2023-05-08T02:12:08.625Z,98035.06
2023-05-08T02:14:38.887Z,98012.34
2023-05-08T02:17:10.739Z,98010.94
2023-05-08T02:19:42.742Z,98014.13
2023-05-08T02:22:12.539Z,97988.22
2023-05-08T02:24:46.236Z,98030.16
2023-05-08T02:27:16.783Z,98023.13
2023-05-08T02:29:46.020Z,98004.88
2023-05-08T02:32:16.822Z,98024.00
2023-05-08T02:34:58.882Z,98035.50
2023-05-08T02:37:32.006Z,98053.09
2023-05-08T02:40:00.723Z,98004.94
2023-05-08T02:42:29.559Z,98005.47
2023-05-08T02:44:57.713Z,98028.19
2023-05-08T02:47:31.592Z,98035.41
2023-05-08T02:50:11.591Z,98034.38
2023-05-08T02:52:46.413Z,98022.44
2023-05-08T02:55:23.898Z,98034.19
2023-05-08T02:58:07.162Z,98031.94
2023-05-08T03:00:43.661Z,98040.06
2023-05-08T03:03:19.951Z,98036.16
2023-05-08T03:05:53.914Z,98048.94
2023-05-08T03:08:27.779Z,98035.63
2023-05-08T03:11:00.572Z,98056.91
2023-05-08T03:13:34.086Z,98036.44
2023-05-08T03:16:05.742Z,98015.47
2023-05-08T03:18:37.996Z,98031.19
2023-05-08T03:21:11.120Z,98016.94
2023-05-08T03:23:42.472Z,98026.91
2023-05-08T03:26:13.559Z,98011.47
2023-05-08T03:28:42.425Z,98041.00
2023-05-08T03:31:13.926Z,98040.28
2023-05-08T03:33:45.494Z,98040.25
2023-05-08T03:36:16.108Z,98041.13
2023-05-08T03:38:45.621Z,98075.06
2023-05-08T03:41:14.875Z,98047.19
2023-05-08T03:43:43.579Z,98009.66
2023-05-08T03:46:13.273Z,98027.56
2023-05-08T03:48:42.745Z,98039.44
2023-05-08T03:51:12.220Z,98023.25
2023-05-08T03:53:42.987Z,98025.50
2023-05-08T03:56:12.074Z,98048.75
2023-05-08T03:58:46.848Z,98075.53
2023-05-08T04:01:25.017Z,98046.34
2023-05-08T04:04:03.492Z,98067.38
2023-05-08T04:06:48.500Z,98065.81
2023-05-08T04:09:26.593Z,98075.94
2023-05-08T04:12:04.318Z,98024.97
2023-05-08T04:14:42.914Z,98068.66
2023-05-08T04:17:16.444Z,98067.50
2023-05-08T04:19:52.168Z,98043.59
2023-05-08T04:22:24.346Z,98064.66
2023-05-08T04:25:00.395Z,98048.03
2023-05-08T04:27:30.777Z,98066.84
2023-05-08T04:29:59.791Z,98058.09
2023-05-08T04:32:30.391Z,98090.44
2023-05-08T04:35:00.582Z,98116.78
2023-05-08T04:37:32.034Z,98080.56
2023-05-08T04:40:02.610Z,98076.75
2023-05-08T04:42:31.488Z,98121.00
2023-05-08T04:45:00.717Z,98075.84
2023-05-08T04:47:29.806Z,98074.38
2023-05-08T04:49:59.545Z,98086.25
2023-05-08T04:52:30.576Z,98109.50
2023-05-08T04:55:00.157Z,98067.91
2023-05-08T04:57:31.518Z,98119.53
2023-05-08T05:00:00.793Z,98090.22
2023-05-08T05:02:42.506Z,98125.72
2023-05-08T05:05:14.632Z,98088.81
2023-05-08T05:07:48.263Z,98123.63
2023-05-08T05:10:21.828Z,98139.06
2023-05-08T05:12:56.756Z,98082.44
2023-05-08T05:15:29.033Z,98102.28
2023-05-08T05:18:03.716Z,98085.81
2023-05-08T05:20:36.678Z,98105.91
2023-05-08T05:23:16.625Z,98119.16
2023-05-08T05:25:49.580Z,98128.41
2023-05-08T05:28:28.795Z,98088.69
2023-05-08T05:31:01.357Z,98111.06
2023-05-08T05:33:37.091Z,98147.59
2023-05-08T05:36:10.068Z,98097.09
2023-05-08T05:38:47.857Z,98131.50
2023-05-08T05:41:20.588Z,98150.31
2023-05-08T05:43:53.574Z,98139.72
2023-05-08T05:46:40.971Z,98132.00
2023-05-08T05:49:19.169Z,98134.31
2023-05-08T05:51:52.159Z,98109.13
2023-05-08T05:54:24.981Z,98151.56
2023-05-08T05:56:56.938Z,98142.91
2023-05-08T05:59:31.636Z,98148.78
2023-05-08T06:02:00.381Z,98156.06
2023-05-08T06:04:29.464Z,98138.84
2023-05-08T06:06:59.018Z,98147.63
2023-05-08T06:09:32.141Z,98173.84
2023-05-08T06:12:07.043Z,98179.06
2023-05-08T06:14:37.270Z,98156.94
2023-05-08T06:17:06.122Z,98158.84
2023-05-08T06:19:35.357Z,98180.56
2023-05-08T06:22:07.445Z,98192.09
2023-05-08T06:24:42.055Z,98172.38
2023-05-08T06:27:19.782Z,98161.94
2023-05-08T06:29:52.366Z,98150.66
2023-05-08T06:32:30.411Z,98200.34
2023-05-08T06:35:14.525Z,98180.81
2023-05-08T06:38:04.775Z,98205.53
2023-05-08T06:40:40.753Z,98209.13
2023-05-08T06:43:14.375Z,98178.56
2023-05-08T06:45:53.989Z,98235.50
2023-05-08T06:48:26.079Z,98209.88
2023-05-08T06:51:01.793Z,98211.13
2023-05-08T06:53:34.106Z,98210.84
2023-05-08T06:59:27.106Z,98201.38
2023-05-08T07:04:59.618Z,98231.16
2023-05-08T07:07:29.966Z,98236.38
2023-05-08T07:10:07.800Z,98192.06
2023-05-08T07:12:40.088Z,98199.31
2023-05-08T07:16:10.338Z,98240.06
2023-05-08T07:18:50.679Z,98220.38
2023-05-08T07:22:00.740Z,98214.41
2023-05-08T07:31:38.862Z,98274.34
2023-05-08T07:34:16.836Z,98238.78
2023-05-08T07:36:48.081Z,98270.09
2023-05-08T07:39:34.737Z,98221.44
2023-05-08T07:42:11.676Z,98198.66
2023-05-08T07:45:11.098Z,98218.06
2023-05-08T07:48:03.958Z,98198.03
2023-05-08T07:51:00.253Z,98194.22
2023-05-08T07:53:48.093Z,98244.34
2023-05-08T07:56:20.260Z,98232.56
2023-05-08T07:58:49.889Z,98232.41
2023-05-08T08:01:19.160Z,98255.75
2023-05-08T08:03:51.372Z,98258.16
2023-05-08T08:06:25.131Z,98268.97
2023-05-08T08:11:41.995Z,98316.66
2023-05-08T08:14:15.800Z,98333.84
2023-05-08T08:16:55.397Z,98285.28
2023-05-08T08:19:27.201Z,98305.09
2023-05-08T08:22:27.364Z,98331.03
2023-05-08T08:40:01.155Z,98389.09
2023-05-08T08:42:39.292Z,98404.13
2023-05-08T08:45:55.580Z,98372.06
2023-05-08T08:51:53.400Z,98390.44
2023-05-08T08:54:29.451Z,98456.31
2023-05-08T08:57:09.153Z,98454.34
2023-05-08T08:59:46.994Z,98316.88
2023-05-08T09:02:18.765Z,98333.13
2023-05-08T09:04:54.983Z,98424.00
2023-05-08T09:07:27.756Z,98380.09
2023-05-08T09:10:21.778Z,98372.38
2023-05-08T09:13:00.534Z,98337.41
2023-05-08T09:15:34.918Z,98345.91
2023-05-08T09:18:05.335Z,98243.63
2023-05-08T09:20:37.882Z,98271.41
2023-05-08T09:23:12.099Z,98270.84
2023-05-08T09:25:44.713Z,98332.28
2023-05-08T09:28:28.963Z,98316.94
2023-05-08T09:31:03.562Z,98273.19
2023-05-08T09:33:32.957Z,98297.88
2023-05-08T09:36:04.846Z,98261.03
2023-05-08T09:38:47.633Z,98318.63
2023-05-08T09:41:20.139Z,98327.28
2023-05-08T09:44:04.569Z,98344.06
2023-05-08T09:46:39.529Z,98297.97
2023-05-08T09:49:25.296Z,98303.72
2023-05-08T09:52:28.715Z,98332.03
2023-05-08T09:55:13.571Z,98354.78
2023-05-08T09:57:58.610Z,98336.22
2023-05-08T10:00:51.530Z,98310.41
2023-05-08T10:03:49.946Z,98349.41
2023-05-08T10:06:44.366Z,98294.59
2023-05-08T10:09:14.485Z,98311.41
2023-05-08T10:12:10.706Z,98312.81
2023-05-08T10:14:46.910Z,98298.00
2023-05-08T10:17:36.406Z,98284.81
2023-05-08T10:20:12.380Z,98340.66
2023-05-08T10:23:01.380Z,98336.25
2023-05-08T10:25:47.770Z,98314.47
2023-05-08T10:28:30.908Z,98307.38
2023-05-08T10:31:30.833Z,98357.88
2023-05-08T10:34:04.409Z,98370.38
2023-05-08T10:36:35.761Z,98330.00
2023-05-08T10:39:08.181Z,98312.25
2023-05-08T10:41:38.379Z,98365.53
2023-05-08T10:44:08.762Z,98334.19
2023-05-08T10:46:47.403Z,98354.84
2023-05-08T10:49:26.612Z,98297.88
2023-05-08T10:52:08.875Z,98329.72
2023-05-08T10:54:50.866Z,98335.56
2023-05-08T10:57:19.364Z,98303.22
2023-05-08T10:59:49.320Z,98276.13
2023-05-08T11:02:17.752Z,98292.91
2023-05-08T11:04:50.255Z,98304.03
2023-05-08T11:07:18.812Z,98322.25
2023-05-08T11:09:48.709Z,98298.94
2023-05-08T11:12:25.168Z,98257.84
2023-05-08T11:15:03.173Z,98253.59
2023-05-08T11:17:33.043Z,98270.56
2023-05-08T11:20:04.052Z,98274.88
2023-05-08T11:22:34.669Z,98297.44
2023-05-08T11:25:07.247Z,98275.50
2023-05-08T11:27:39.764Z,98300.22
2023-05-08T11:30:22.489Z,98313.44
2023-05-08T11:33:14.877Z,98308.47
2023-05-08T11:35:51.184Z,98269.69
2023-05-08T11:38:22.947Z,98258.22
2023-05-08T11:40:58.356Z,98261.47
2023-05-08T11:43:42.112Z,98253.06
2023-05-08T11:46:17.094Z,98263.34
2023-05-08T11:48:46.612Z,98235.13
2023-05-08T11:51:19.455Z,98228.38
2023-05-08T11:53:49.619Z,98233.38
2023-05-08T11:56:18.581Z,98262.84
2023-05-08T11:58:47.863Z,98254.72
2023-05-08T12:01:22.412Z,98237.38
2023-05-08T12:04:01.428Z,98232.97
2023-05-08T12:06:33.984Z,98248.03
2023-05-08T12:09:05.032Z,98282.53
2023-05-08T12:11:34.820Z,98258.91
2023-05-08T12:14:03.752Z,98291.25
2023-05-08T12:16:37.164Z,98257.91
2023-05-08T12:19:06.415Z,98249.50
2023-05-08T12:21:38.291Z,98272.53
2023-05-08T12:24:13.008Z,98230.47
2023-05-08T12:26:42.971Z,98238.84
2023-05-08T12:29:11.926Z,98272.56
2023-05-08T12:31:47.852Z,98262.84
2023-05-08T12:34:18.073Z,98243.13
2023-05-08T12:36:49.242Z,98262.22
2023-05-08T12:39:20.490Z,98225.53
2023-05-08T12:41:50.970Z,98248.09
2023-05-08T12:44:22.080Z,98227.97
2023-05-08T12:46:56.795Z,98247.09
2023-05-08T12:49:28.860Z,98246.25
2023-05-08T12:52:07.761Z,98279.97
2023-05-08T12:54:37.887Z,98253.22
2023-05-08T12:57:12.655Z,98215.16
2023-05-08T12:59:42.191Z,98209.94
2023-05-08T13:02:17.910Z,98220.72
2023-05-08T13:04:49.369Z,98255.03
2023-05-08T13:07:23.437Z,98249.97
2023-05-08T13:10:09.529Z,98246.34
2023-05-08T13:12:41.829Z,98249.84
2023-05-08T13:15:13.667Z,98221.50
2023-05-08T13:17:43.344Z,98183.13
2023-05-08T13:20:14.902Z,98241.31
2023-05-08T13:22:47.667Z,98207.13
2023-05-08T13:25:16.523Z,98181.03
2023-05-08T13:27:45.810Z,98177.00
2023-05-08T13:30:26.443Z,98171.50
2023-05-08T13:46:34.511Z,98186.53
2023-05-08T13:49:06.273Z,98195.25
2023-05-08T13:51:36.849Z,98185.31
2023-05-08T13:54:09.831Z,98179.06
2023-05-08T13:56:44.537Z,98202.81
2023-05-08T13:59:16.160Z,98157.53
2023-05-08T14:01:48.405Z,98176.91
2023-05-08T14:04:21.919Z,98159.50
2023-05-08T14:06:52.061Z,98141.44
2023-05-08T14:09:26.037Z,98183.94
2023-05-08T14:12:00.692Z,98143.72
2023-05-08T14:14:39.826Z,98166.75
2023-05-08T14:17:15.358Z,98174.94
2023-05-08T14:19:54.434Z,98157.28
2023-05-08T14:22:28.830Z,98179.75
2023-05-08T14:25:03.582Z,98193.84
2023-05-08T14:27:36.254Z,98171.78
2023-05-08T14:30:09.335Z,98172.09
2023-05-08T14:32:42.468Z,98114.97
2023-05-08T14:35:12.467Z,98145.75
2023-05-08T14:37:44.230Z,98129.88
2023-05-08T14:40:13.878Z,98160.44
2023-05-08T14:42:48.226Z,98108.13
2023-05-08T14:45:24.311Z,98122.81
2023-05-08T14:47:56.938Z,98146.78
2023-05-08T14:50:27.690Z,98138.50
2023-05-08T14:52:57.201Z,98129.09
2023-05-08T14:55:26.327Z,98140.75
2023-05-08T14:57:55.134Z,98124.13
2023-05-08T15:00:25.994Z,98109.09
2023-05-08T15:02:55.478Z,98094.22
2023-05-08T15:05:28.454Z,98110.00
2023-05-08T15:08:03.493Z,98097.91
2023-05-08T15:10:32.600Z,98115.00
2023-05-08T15:13:01.867Z,98072.13
2023-05-08T15:15:32.959Z,98116.03
2023-05-08T15:18:06.201Z,98084.59
2023-05-08T15:20:36.204Z,98103.78
2023-05-08T15:23:10.246Z,98109.22
2023-05-08T15:25:39.903Z,98103.06
2023-05-08T15:28:08.746Z,98151.16
2023-05-08T15:30:39.642Z,98142.63
2023-05-08T15:33:08.432Z,98121.91
2023-05-08T15:35:37.012Z,98137.22
2023-05-08T15:38:07.834Z,98122.34
2023-05-08T15:40:36.616Z,98107.91
2023-05-08T15:43:06.200Z,98082.84
2023-05-08T15:45:35.607Z,98093.25
2023-05-08T15:48:06.259Z,98100.25
2023-05-08T15:50:35.663Z,98100.25
2023-05-08T15:53:05.158Z,98118.38
2023-05-08T15:55:33.730Z,98116.06
2023-05-08T15:58:03.113Z,98083.09
2023-05-08T16:00:43.965Z,98108.84
2023-05-08T16:03:15.847Z,98112.22
2023-05-08T16:05:44.764Z,98106.13
2023-05-08T16:08:13.985Z,98088.81
2023-05-08T16:10:43.949Z,98074.38
2023-05-08T16:13:12.487Z,98062.47
2023-05-08T16:15:41.638Z,98101.84
2023-05-08T16:18:10.168Z,98100.75
2023-05-08T16:20:42.193Z,98075.97
2023-05-08T16:23:10.805Z,98090.19
2023-05-08T16:25:39.548Z,98071.38
2023-05-08T16:28:08.740Z,98058.44
2023-05-08T16:30:40.615Z,98050.09
2023-05-08T16:33:09.708Z,98066.91
2023-05-08T16:35:40.769Z,98055.81
2023-05-08T16:38:10.039Z,98067.72
2023-05-08T16:40:39.038Z,98062.47
2023-05-08T16:43:08.872Z,98058.44
2023-05-08T16:45:37.732Z,98058.69
2023-05-08T16:48:06.486Z,98071.97
2023-05-08T16:50:35.228Z,98059.25
2023-05-08T16:53:05.695Z,98070.25
2023-05-08T16:55:34.188Z,98079.16
2023-05-08T16:58:04.795Z,98062.38
2023-05-08T17:00:34.294Z,98067.38
2023-05-08T17:03:03.145Z,98054.75
2023-05-08T17:05:32.458Z,98079.63
2023-05-08T17:08:01.297Z,98065.88
2023-05-08T17:10:31.472Z,98057.66
2023-05-08T17:13:00.679Z,98088.59
2023-05-08T17:15:29.068Z,98095.41
2023-05-08T17:17:58.187Z,98107.16
2023-05-08T17:20:41.078Z,98094.84
2023-05-08T17:23:10.284Z,98077.00
2023-05-08T17:25:47.167Z,98083.66
2023-05-08T17:28:17.463Z,98060.28
2023-05-08T17:30:47.696Z,98088.91
2023-05-08T17:33:36.946Z,98097.94
2023-05-08T17:36:11.966Z,98089.69
2023-05-08T17:38:48.412Z,98115.69
2023-05-08T17:41:22.281Z,98124.47
2023-05-08T17:43:59.708Z,98072.31
2023-05-08T17:46:28.572Z,98068.63
2023-05-08T17:48:57.150Z,98090.75
2023-05-08T17:51:27.596Z,98064.72
2023-05-08T17:53:57.941Z,98111.25
2023-05-08T17:57:14.323Z,98096.69
2023-05-08T18:00:29.558Z,98113.84
2023-05-08T18:03:05.950Z,98071.56
2023-05-08T18:05:35.155Z,98077.09
2023-05-08T18:08:07.283Z,98132.41
2023-05-08T18:10:39.542Z,98074.94
2023-05-08T18:13:13.103Z,98113.75
2023-05-08T18:15:42.977Z,98082.78
2023-05-08T18:18:14.176Z,98069.03
2023-05-08T18:20:46.687Z,98120.13
2023-05-08T18:23:16.781Z,98082.47
2023-05-08T18:26:11.003Z,98115.09
2023-05-08T18:28:42.653Z,98061.69
2023-05-08T18:31:16.120Z,98054.88
2023-05-08T18:33:47.612Z,98079.28
2023-05-08T18:36:28.734Z,98090.91
2023-05-08T18:38:58.411Z,98073.59
2023-05-08T18:41:35.532Z,98089.44
2023-05-08T18:44:14.947Z,98072.13
2023-05-08T18:46:47.332Z,98082.41
2023-05-08T18:49:23.722Z,98076.19
2023-05-08T18:51:56.558Z,98067.81
2023-05-08T18:54:28.841Z,98076.66
2023-05-08T18:56:59.948Z,98024.88
2023-05-08T18:59:37.951Z,98050.13
2023-05-08T19:02:17.639Z,98069.03
2023-05-08T19:05:08.620Z,98061.31
2023-05-08T19:07:44.043Z,98042.44
2023-05-08T19:10:27.339Z,98041.00
2023-05-08T19:13:02.587Z,98041.97
2023-05-08T19:15:41.054Z,98069.28
2023-05-08T19:18:24.089Z,98075.41
2023-05-08T19:20:55.418Z,98095.50
2023-05-08T19:23:35.584Z,98079.94
2023-05-08T19:26:18.807Z,98089.84
2023-05-08T19:28:50.997Z,98047.13
2023-05-08T19:31:20.404Z,98044.72
2023-05-08T19:33:53.803Z,98050.84
2023-05-08T19:36:26.746Z,98053.06
2023-05-08T19:38:56.388Z,98081.34
2023-05-08T19:41:34.327Z,98082.97
2023-05-08T19:44:12.234Z,98087.78
2023-05-08T19:46:50.319Z,98093.09
2023-05-08T19:49:29.300Z,98089.91
2023-05-08T19:52:13.425Z,98094.84
2023-05-08T19:54:44.255Z,98100.50
2023-05-08T19:57:24.928Z,98094.84
2023-05-08T20:00:00.912Z,98094.22
2023-05-08T20:02:31.645Z,98093.59
2023-05-08T20:05:21.263Z,98097.13
2023-05-08T20:07:55.317Z,98083.44
2023-05-08T20:10:25.150Z,98073.03
2023-05-08T20:12:54.418Z,98092.28
2023-05-08T20:15:25.100Z,98082.69
2023-05-08T20:17:56.151Z,98063.25
2023-05-08T20:20:28.052Z,98063.06
2023-05-08T20:22:58.945Z,98045.56
2023-05-08T20:25:28.892Z,98076.75
2023-05-08T20:28:01.684Z,98082.50
2023-05-08T20:33:32.645Z,98095.53
2023-05-08T20:36:12.953Z,98067.75
2023-05-08T20:38:43.286Z,98083.34
2023-05-08T20:41:12.456Z,98059.06
2023-05-08T20:43:45.827Z,98052.66
2023-05-08T20:46:21.179Z,98057.97
2023-05-08T20:49:17.403Z,98073.22
2023-05-08T20:51:51.416Z,98075.78
2023-05-08T20:54:22.004Z,98064.22
2023-05-08T20:56:51.790Z,98071.13
2023-05-08T20:59:27.176Z,98045.91
2023-05-08T21:01:56.513Z,98059.72
2023-05-08T21:04:25.963Z,98041.25
2023-05-08T21:06:55.204Z,98031.38
2023-05-08T21:09:26.766Z,98028.50
2023-05-08T21:11:57.891Z,98021.41
2023-05-08T21:14:30.504Z,98027.84
2023-05-08T21:17:10.635Z,98041.22
2023-05-08T21:19:40.524Z,98024.44
2023-05-08T21:22:14.137Z,97994.59
2023-05-08T21:24:50.156Z,98053.41
2023-05-08T21:27:19.964Z,98022.31
2023-05-08T21:29:50.328Z,98009.44
2023-05-08T21:32:20.092Z,98027.25
2023-05-08T21:34:49.709Z,98036.91
2023-05-08T21:37:23.011Z,98002.47
2023-05-08T21:39:54.492Z,98028.19
2023-05-08T21:42:24.728Z,98015.28
2023-05-08T21:44:56.450Z,97981.72
2023-05-08T21:47:31.781Z,98002.69
2023-05-08T21:50:03.881Z,97989.59
2023-05-08T21:52:34.673Z,97998.94
2023-05-08T21:55:11.113Z,98008.78
2023-05-08T21:57:40.890Z,97984.97
2023-05-08T22:00:15.725Z,98001.38
2023-05-08T22:02:45.311Z,97990.03
2023-05-08T22:05:20.466Z,97969.75
2023-05-08T22:07:51.093Z,98002.97
2023-05-08T22:10:25.544Z,98014.38
2023-05-08T22:13:02.202Z,97991.34
2023-05-08T22:15:35.559Z,97986.69
2023-05-08T22:18:08.521Z,97999.25
2023-05-08T22:20:42.839Z,98006.75
2023-05-08T22:23:15.041Z,97978.03
2023-05-08T22:25:46.728Z,98027.22
2023-05-08T22:28:16.662Z,97985.53
2023-05-08T22:30:49.163Z,97999.38
2023-05-08T22:33:22.762Z,97987.88
2023-05-08T22:35:52.241Z,97990.97
2023-05-08T22:38:22.090Z,97986.75
2023-05-08T22:41:00.683Z,98001.34
2023-05-08T22:43:38.200Z,97974.03
2023-05-08T22:46:08.348Z,97953.50
2023-05-08T22:48:38.604Z,97970.97
2023-05-08T22:51:14.525Z,97953.50
2023-05-08T22:53:44.239Z,97986.19
2023-05-08T22:56:14.963Z,97982.09
2023-05-08T22:58:52.139Z,97984.50
2023-05-08T23:01:25.589Z,97982.50
2023-05-08T23:03:55.592Z,97944.75
2023-05-08T23:06:30.198Z,97988.63
2023-05-08T23:09:01.467Z,98005.78
2023-05-08T23:11:32.018Z,97970.94
2023-05-08T23:14:08.484Z,97968.81
2023-05-08T23:16:37.528Z,97966.72
2023-05-08T23:19:17.959Z,97943.19
2023-05-08T23:21:49.895Z,97963.19
2023-05-08T23:24:20.949Z,97945.66
2023-05-08T23:27:03.646Z,97965.69
2023-05-08T23:29:34.130Z,97925.28
2023-05-08T23:32:05.324Z,97945.00
2023-05-08T23:34:35.447Z,97967.91
2023-05-08T23:37:04.455Z,97929.59
2023-05-08T23:39:39.573Z,97957.03
2023-05-08T23:42:12.851Z,97950.81
2023-05-08T23:44:42.232Z,97956.75
2023-05-08T23:47:13.992Z,97948.09
2023-05-08T23:49:43.369Z,97952.50
2023-05-08T23:52:12.770Z,97940.03
2023-05-08T23:54:45.029Z,97957.16
2023-05-08T23:57:18.320Z,97956.63
2023-05-08T23:59:52.838Z,97907.13
